createdAt,value
2023-02-14T00:00:58.708Z,15.81
2023-02-14T00:03:26.014Z,15.80
2023-02-14T00:05:52.853Z,15.81
2023-02-14T00:08:20.401Z,15.86
2023-02-14T00:10:47.697Z,15.87
2023-02-14T00:13:16.862Z,15.90
2023-02-14T00:15:44.094Z,15.89
2023-02-14T00:18:12.452Z,15.89
2023-02-14T00:20:39.549Z,15.86
2023-02-14T00:23:07.625Z,15.90
2023-02-14T00:25:36.250Z,15.87
2023-02-14T00:28:04.804Z,15.86
2023-02-14T00:30:38.908Z,15.83
2023-02-14T00:33:06.030Z,15.73
2023-02-14T00:35:39.611Z,15.69
2023-02-14T00:38:09.419Z,15.67
2023-02-14T00:40:38.821Z,15.56
2023-02-14T00:43:09.304Z,15.46
2023-02-14T00:45:37.586Z,15.52
2023-02-14T00:48:05.641Z,15.54
2023-02-14T00:50:35.559Z,15.60
2023-02-14T00:53:02.490Z,15.59
2023-02-14T00:55:29.515Z,15.50
2023-02-14T00:57:56.444Z,15.44
2023-02-14T01:00:23.706Z,15.42
2023-02-14T01:03:02.135Z,15.29
2023-02-14T01:05:29.855Z,15.23
2023-02-14T01:07:58.531Z,15.25
2023-02-14T01:10:25.469Z,15.26
2023-02-14T01:12:52.522Z,15.36
2023-02-14T01:15:19.620Z,15.29
2023-02-14T01:17:46.852Z,15.29
2023-02-14T01:20:15.622Z,15.30
2023-02-14T01:22:43.010Z,15.38
2023-02-14T01:25:11.543Z,15.47
2023-02-14T01:27:38.719Z,15.56
2023-02-14T01:30:08.747Z,15.60
2023-02-14T01:32:36.775Z,15.63
2023-02-14T01:35:06.142Z,15.64
2023-02-14T01:37:33.120Z,15.63
2023-02-14T01:40:01.069Z,15.60
2023-02-14T01:42:29.625Z,15.63
2023-02-14T01:45:03.971Z,15.63
2023-02-14T01:47:38.786Z,15.63
2023-02-14T01:50:14.921Z,15.63
2023-02-14T01:52:54.980Z,15.64
2023-02-14T01:55:27.989Z,15.56
2023-02-14T01:58:02.304Z,15.52
2023-02-14T02:00:30.700Z,15.42
2023-02-14T02:03:01.483Z,15.36
2023-02-14T02:05:29.190Z,15.32
2023-02-14T02:08:00.438Z,15.30
2023-02-14T02:10:29.030Z,15.26
2023-02-14T02:13:04.727Z,15.30
2023-02-14T02:15:41.062Z,15.30
2023-02-14T02:18:18.428Z,15.35
2023-02-14T02:21:50.497Z,15.35
2023-02-14T02:24:31.291Z,15.25
2023-02-14T02:27:34.593Z,15.28
2023-02-14T02:30:58.016Z,15.23
2023-02-14T02:34:11.234Z,15.15
2023-02-14T02:36:59.073Z,14.89
2023-02-14T02:39:45.974Z,14.75
2023-02-14T02:42:29.964Z,14.75
2023-02-14T02:45:12.806Z,14.72
2023-02-14T02:47:46.947Z,14.71
2023-02-14T02:50:25.361Z,14.77
2023-02-14T02:53:06.903Z,14.82
2023-02-14T02:55:43.746Z,14.87
2023-02-14T02:58:10.828Z,14.77
2023-02-14T03:00:38.121Z,14.71
2023-02-14T03:03:05.729Z,14.57
2023-02-14T03:05:35.216Z,14.45
2023-02-14T03:08:03.996Z,14.40
2023-02-14T03:10:37.250Z,14.40
2023-02-14T03:13:30.491Z,14.48
2023-02-14T03:16:33.330Z,14.56
2023-02-14T03:19:22.672Z,14.57
2023-02-14T03:21:59.190Z,14.54
2023-02-14T03:24:44.444Z,14.60
2023-02-14T03:27:21.534Z,14.56
2023-02-14T03:30:08.143Z,14.44
2023-02-14T03:32:43.757Z,14.40
2023-02-14T03:35:20.713Z,14.48
2023-02-14T03:37:55.360Z,14.54
2023-02-14T03:40:29.885Z,14.56
2023-02-14T03:43:10.450Z,14.52
2023-02-14T03:45:45.024Z,14.56
2023-02-14T03:48:16.167Z,14.45
2023-02-14T03:50:48.438Z,14.38
2023-02-14T03:53:19.587Z,14.34
2023-02-14T03:56:01.828Z,14.31
2023-02-14T03:58:34.833Z,14.34
2023-02-14T04:01:10.178Z,14.38
2023-02-14T04:03:43.428Z,14.37
2023-02-14T04:06:10.610Z,14.38
2023-02-14T04:08:37.682Z,14.44
2023-02-14T04:11:07.168Z,14.51
2023-02-14T04:13:36.956Z,14.54
2023-02-14T04:16:04.839Z,14.58
2023-02-14T04:18:32.020Z,14.58
2023-02-14T04:21:00.416Z,14.63
2023-02-14T04:23:27.831Z,14.61
2023-02-14T04:25:55.145Z,14.61
2023-02-14T04:28:23.603Z,14.65
2023-02-14T04:30:50.593Z,14.71
2023-02-14T04:33:17.540Z,14.84
2023-02-14T04:35:44.691Z,14.91
2023-02-14T04:38:11.789Z,14.82
2023-02-14T04:43:31.495Z,14.75
2023-02-14T04:45:58.491Z,14.75
2023-02-14T04:48:25.535Z,14.71
2023-02-14T04:50:53.203Z,14.71
2023-02-14T04:53:20.446Z,14.79
2023-02-14T04:55:50.003Z,14.84
2023-02-14T04:58:17.213Z,14.92
2023-02-14T05:00:45.565Z,14.98
2023-02-14T05:03:12.457Z,14.96
2023-02-14T05:05:39.872Z,14.99
2023-02-14T05:08:06.711Z,14.98
2023-02-14T05:10:33.709Z,14.92
2023-02-14T05:13:01.221Z,14.87
2023-02-14T05:15:28.181Z,14.87
2023-02-14T05:17:56.832Z,14.79
2023-02-14T05:20:23.958Z,14.77
2023-02-14T05:22:51.078Z,14.78
2023-02-14T05:25:18.940Z,14.81
2023-02-14T05:27:45.811Z,14.82
2023-02-14T05:30:14.469Z,14.77
2023-02-14T05:32:41.478Z,14.74
2023-02-14T05:35:10.324Z,14.65
2023-02-14T05:37:37.424Z,14.63
2023-02-14T05:40:06.940Z,14.48
2023-02-14T05:42:34.005Z,14.42
2023-02-14T05:45:06.360Z,14.36
2023-02-14T05:47:33.881Z,14.33
2023-02-14T05:50:00.947Z,14.26
2023-02-14T05:52:29.241Z,14.33
2023-02-14T05:54:56.348Z,14.26
2023-02-14T05:57:23.536Z,14.23
2023-02-14T05:59:50.572Z,14.19
2023-02-14T06:02:17.559Z,14.23
2023-02-14T06:04:44.581Z,14.26
2023-02-14T06:07:11.672Z,14.29
2023-02-14T06:09:40.253Z,14.30
2023-02-14T06:12:07.886Z,14.27
2023-02-14T06:14:35.025Z,14.19
2023-02-14T06:17:02.026Z,14.17
2023-02-14T06:19:28.917Z,14.07
2023-02-14T06:21:58.348Z,14.05
2023-02-14T06:24:25.350Z,14.05
2023-02-14T06:26:55.446Z,14.09
2023-02-14T06:29:23.678Z,14.14
2023-02-14T06:31:50.836Z,14.23
2023-02-14T06:34:17.984Z,14.31
2023-02-14T06:36:44.962Z,14.40
2023-02-14T06:39:12.104Z,14.41
2023-02-14T06:41:39.850Z,14.44
2023-02-14T06:44:08.312Z,14.42
2023-02-14T06:46:35.763Z,14.36
2023-02-14T06:49:02.620Z,14.33
2023-02-14T06:51:30.741Z,14.34
2023-02-14T06:53:57.803Z,14.38
2023-02-14T06:56:24.809Z,14.47
2023-02-14T06:58:51.930Z,14.57
2023-02-14T07:04:11.319Z,14.63
2023-02-14T07:06:38.512Z,14.71
2023-02-14T07:09:06.403Z,14.71
2023-02-14T07:11:33.646Z,14.67
2023-02-14T07:14:00.731Z,14.65
2023-02-14T07:16:28.968Z,14.57
2023-02-14T07:18:55.851Z,14.56
2023-02-14T07:24:14.412Z,14.60
2023-02-14T07:26:41.365Z,14.63
2023-02-14T07:29:08.336Z,14.68
2023-02-14T07:31:36.893Z,14.72
2023-02-14T07:34:03.833Z,14.75
2023-02-14T07:36:30.925Z,14.81
2023-02-14T07:38:58.167Z,14.81
2023-02-14T07:41:25.313Z,14.81
2023-02-14T07:43:52.635Z,14.88
2023-02-14T07:46:46.595Z,14.98
2023-02-14T07:49:13.838Z,15.02
2023-02-14T07:51:40.780Z,15.06
2023-02-14T07:54:09.767Z,15.12
2023-02-14T07:56:36.956Z,15.19
2023-02-14T07:59:03.868Z,15.19
2023-02-14T08:01:31.100Z,15.23
2023-02-14T08:03:59.808Z,15.28
2023-02-14T08:06:26.681Z,15.36
2023-02-14T08:08:53.738Z,15.35
2023-02-14T08:11:20.620Z,15.36
2023-02-14T08:13:47.653Z,15.38
2023-02-14T08:16:14.500Z,15.44
2023-02-14T08:18:42.800Z,15.52
2023-02-14T08:21:11.331Z,15.59
2023-02-14T08:23:39.441Z,15.67
2023-02-14T08:26:07.552Z,15.69
2023-02-14T08:28:35.072Z,15.79
2023-02-14T08:31:04.548Z,15.73
2023-02-14T08:33:31.550Z,15.71
2023-02-14T08:35:58.601Z,15.74
2023-02-14T08:38:27.291Z,15.80
2023-02-14T08:40:54.454Z,15.84
2023-02-14T08:43:21.576Z,15.87
2023-02-14T08:45:52.426Z,15.90
2023-02-14T08:48:19.458Z,15.94
2023-02-14T08:50:46.427Z,15.96
2023-02-14T08:53:13.690Z,16.07
2023-02-14T08:55:42.281Z,16.14
2023-02-14T08:58:09.219Z,16.18
2023-02-14T09:00:36.391Z,16.28
2023-02-14T09:03:03.917Z,16.26
2023-02-14T09:05:31.374Z,16.34
2023-02-14T09:07:58.453Z,16.41
2023-02-14T09:10:26.218Z,16.48
2023-02-14T09:12:54.560Z,16.53
2023-02-14T09:15:21.651Z,16.59
2023-02-14T09:17:48.603Z,16.66
2023-02-14T09:20:16.052Z,16.68
2023-02-14T09:22:43.749Z,16.69
2023-02-14T09:25:11.479Z,16.71
2023-02-14T09:27:38.712Z,16.76
2023-02-14T09:30:10.037Z,16.77
2023-02-14T09:32:36.944Z,16.87
2023-02-14T09:35:03.941Z,16.96
2023-02-14T09:37:31.104Z,17.06
2023-02-14T09:39:58.217Z,17.14
2023-02-14T09:42:52.993Z,17.34
2023-02-14T09:45:26.512Z,17.33
2023-02-14T09:48:03.097Z,17.27
2023-02-14T09:50:34.910Z,17.19
2023-02-14T09:53:23.064Z,17.23
2023-02-14T09:56:02.064Z,17.23
2023-02-14T09:58:35.966Z,17.27
2023-02-14T10:01:15.635Z,17.34
2023-02-14T10:04:21.332Z,17.57
2023-02-14T10:07:00.949Z,17.71
2023-02-14T10:10:01.153Z,17.94
2023-02-14T10:12:33.451Z,18.22
2023-02-14T10:15:12.549Z,18.52
2023-02-14T10:17:46.363Z,18.83
2023-02-14T10:20:24.056Z,19.08
2023-02-14T10:23:02.394Z,19.42
2023-02-14T10:25:42.474Z,19.87
2023-02-14T10:28:16.511Z,20.08
2023-02-14T10:30:59.092Z,19.96
2023-02-14T10:33:32.533Z,19.82
2023-02-14T10:36:08.664Z,19.86
2023-02-14T10:38:45.335Z,19.83
2023-02-14T10:41:28.074Z,19.93
2023-02-14T10:44:15.715Z,20.19
2023-02-14T10:46:52.116Z,20.40
2023-02-14T10:49:37.472Z,20.58
2023-02-14T10:52:18.099Z,20.63
2023-02-14T10:54:54.209Z,20.74
2023-02-14T10:57:28.860Z,21.06
2023-02-14T11:00:00.876Z,21.31
2023-02-14T11:02:34.276Z,21.35
2023-02-14T11:05:05.491Z,21.28
2023-02-14T11:07:32.757Z,21.22
2023-02-14T11:10:00.934Z,21.25
2023-02-14T11:12:37.335Z,21.56
2023-02-14T11:15:21.571Z,21.94
2023-02-14T11:17:49.766Z,22.21
2023-02-14T11:20:27.553Z,22.44
2023-02-14T11:22:54.759Z,22.34
2023-02-14T11:25:24.700Z,22.03
2023-02-14T11:27:59.292Z,21.79
2023-02-14T11:30:33.562Z,21.62
2023-02-14T11:33:00.899Z,21.64
2023-02-14T11:35:31.959Z,21.76
2023-02-14T11:37:59.744Z,21.94
2023-02-14T11:40:31.958Z,22.01
2023-02-14T11:43:13.462Z,21.82
2023-02-14T11:45:44.900Z,21.98
2023-02-14T11:48:31.461Z,22.33
2023-02-14T11:51:08.336Z,22.31
2023-02-14T11:53:45.305Z,22.33
2023-02-14T11:56:13.271Z,22.34
2023-02-14T11:58:48.496Z,22.31
2023-02-14T12:01:25.078Z,22.08
2023-02-14T12:03:55.484Z,21.94
2023-02-14T12:06:27.984Z,22.01
2023-02-14T12:09:13.647Z,22.14
2023-02-14T12:11:40.570Z,22.25
2023-02-14T12:14:21.566Z,22.33
2023-02-14T12:16:58.154Z,22.38
2023-02-14T12:19:37.023Z,22.55
2023-02-14T12:22:07.144Z,22.55
2023-02-14T12:24:39.295Z,22.64
2023-02-14T12:27:21.603Z,22.96
2023-02-14T12:29:54.301Z,23.17
2023-02-14T12:32:24.886Z,23.39
2023-02-14T12:34:58.667Z,23.44
2023-02-14T12:37:43.564Z,23.49
2023-02-14T12:40:21.134Z,23.44
2023-02-14T12:43:42.260Z,23.51
2023-02-14T12:46:25.939Z,23.26
2023-02-14T12:49:26.913Z,23.09
2023-02-14T12:52:06.909Z,23.15
2023-02-14T12:55:00.284Z,23.26
2023-02-14T12:57:43.166Z,23.24
2023-02-14T13:00:28.374Z,23.19
2023-02-14T13:03:32.479Z,23.00
2023-02-14T13:06:13.555Z,22.56
2023-02-14T13:09:02.669Z,22.40
2023-02-14T13:11:42.333Z,22.34
2023-02-14T13:14:32.156Z,22.41
2023-02-14T13:17:06.291Z,22.34
2023-02-14T13:19:47.484Z,22.40
2023-02-14T13:22:19.562Z,22.47
2023-02-14T13:24:51.310Z,22.55
2023-02-14T13:27:24.423Z,22.54
2023-02-14T13:29:59.358Z,22.38
2023-02-14T13:32:32.907Z,22.27
2023-02-14T13:35:00.989Z,22.25
2023-02-14T13:37:30.573Z,22.38
2023-02-14T13:40:03.530Z,22.47
2023-02-14T13:42:58.430Z,22.56
2023-02-14T13:45:51.720Z,22.55
2023-02-14T13:48:22.715Z,22.61
2023-02-14T13:50:54.503Z,22.59
2023-02-14T13:53:39.774Z,22.59
2023-02-14T13:56:32.457Z,22.64
2023-02-14T13:59:04.909Z,22.64
2023-02-14T14:01:38.391Z,22.47
2023-02-14T14:04:35.260Z,22.24
2023-02-14T14:07:22.345Z,22.13
2023-02-14T14:09:59.151Z,21.98
2023-02-14T14:12:52.887Z,21.96
2023-02-14T14:15:20.608Z,21.84
2023-02-14T14:18:40.516Z,22.01
2023-02-14T14:24:24.332Z,21.60
2023-02-14T14:27:00.589Z,21.43
2023-02-14T14:29:31.267Z,21.31
2023-02-14T14:31:58.527Z,21.23
2023-02-14T14:34:28.250Z,21.21
2023-02-14T14:37:05.919Z,21.12
2023-02-14T14:39:35.793Z,21.13
2023-02-14T14:42:08.551Z,21.06
2023-02-14T14:44:37.795Z,21.06
2023-02-14T14:47:05.081Z,21.03
2023-02-14T14:49:32.746Z,21.06
2023-02-14T14:51:59.989Z,21.08
2023-02-14T14:54:28.335Z,20.94
2023-02-14T14:56:59.603Z,20.99
2023-02-14T14:59:30.532Z,21.08
2023-02-14T15:01:57.920Z,21.05
2023-02-14T15:04:27.898Z,20.96
2023-02-14T15:06:56.371Z,20.95
2023-02-14T15:09:32.352Z,20.91
2023-02-14T15:12:01.683Z,20.85
2023-02-14T15:14:33.659Z,20.96
2023-02-14T15:17:03.999Z,21.08
2023-02-14T15:19:36.999Z,21.06
2023-02-14T15:22:07.432Z,21.01
2023-02-14T15:24:38.782Z,20.98
2023-02-14T15:27:15.176Z,20.95
2023-02-14T15:29:42.660Z,20.90
2023-02-14T15:32:11.110Z,20.94
2023-02-14T15:34:38.368Z,20.80
2023-02-14T15:37:06.983Z,20.58
2023-02-14T15:42:34.457Z,20.34
2023-02-14T15:45:22.523Z,20.17
2023-02-14T15:47:54.534Z,19.83
2023-02-14T15:50:24.728Z,19.70
2023-02-14T15:52:54.893Z,19.47
2023-02-14T15:55:26.750Z,19.27
2023-02-14T15:57:57.744Z,19.18
2023-02-14T16:00:25.602Z,19.15
2023-02-14T16:02:58.370Z,19.07
2023-02-14T16:05:27.265Z,18.96
2023-02-14T16:08:00.750Z,18.88
2023-02-14T16:10:32.195Z,18.80
2023-02-14T16:13:03.167Z,18.73
2023-02-14T16:15:32.423Z,18.59
2023-02-14T16:18:00.177Z,18.45
2023-02-14T16:20:45.389Z,18.43
2023-02-14T16:23:25.481Z,18.36
2023-02-14T16:25:55.813Z,18.35
2023-02-14T16:28:23.359Z,18.32
2023-02-14T16:30:55.717Z,18.32
2023-02-14T16:33:28.266Z,18.30
2023-02-14T16:36:00.945Z,18.30
2023-02-14T16:38:27.940Z,18.28
2023-02-14T16:40:56.062Z,18.26
2023-02-14T16:43:23.212Z,18.22
2023-02-14T16:45:50.312Z,18.16
2023-02-14T16:48:17.453Z,18.13
2023-02-14T16:50:46.208Z,18.10
2023-02-14T16:53:24.718Z,18.09
2023-02-14T16:55:57.591Z,18.01
2023-02-14T16:58:34.618Z,17.95
2023-02-14T17:03:52.640Z,17.78
2023-02-14T17:06:24.042Z,17.74
2023-02-14T17:08:54.064Z,17.61
2023-02-14T17:11:23.803Z,17.55
2023-02-14T17:13:53.294Z,17.50
2023-02-14T17:16:23.445Z,17.41
2023-02-14T17:18:52.725Z,17.34
2023-02-14T17:21:22.399Z,17.22
2023-02-14T17:24:17.910Z,17.16
2023-02-14T17:26:54.639Z,17.17
2023-02-14T17:29:26.165Z,17.10
2023-02-14T17:31:53.271Z,17.04
2023-02-14T17:34:20.185Z,17.02
2023-02-14T17:36:47.294Z,16.99
2023-02-14T17:39:14.198Z,16.93
2023-02-14T17:41:41.000Z,16.92
2023-02-14T17:44:07.972Z,16.85
2023-02-14T17:46:36.168Z,16.79
2023-02-14T17:49:03.070Z,16.75
2023-02-14T17:51:30.064Z,16.69
2023-02-14T17:53:58.971Z,16.63
2023-02-14T17:56:27.228Z,16.61
2023-02-14T17:58:55.590Z,16.56
2023-02-14T18:01:25.547Z,16.52
2023-02-14T18:03:57.877Z,16.35
2023-02-14T18:06:24.867Z,16.26
2023-02-14T18:08:52.052Z,16.15
2023-02-14T18:11:21.132Z,16.10
2023-02-14T18:13:48.701Z,16.02
2023-02-14T18:16:19.302Z,15.98
2023-02-14T18:18:46.731Z,15.94
2023-02-14T18:21:18.177Z,15.93
2023-02-14T18:24:11.929Z,15.87
2023-02-14T18:26:41.071Z,15.89
2023-02-14T18:29:09.252Z,15.81
2023-02-14T18:31:38.453Z,15.81
2023-02-14T18:34:06.040Z,15.79
2023-02-14T18:36:36.452Z,15.76
2023-02-14T18:39:06.047Z,15.77
2023-02-14T18:41:33.676Z,15.76
2023-02-14T18:44:06.503Z,15.74
2023-02-14T18:46:36.055Z,15.73
2023-02-14T18:49:05.756Z,15.71
2023-02-14T18:51:36.541Z,15.73
2023-02-14T18:54:04.194Z,15.66
2023-02-14T18:56:34.660Z,15.61
2023-02-14T18:59:04.654Z,15.56
2023-02-14T19:01:34.055Z,15.49
2023-02-14T19:04:01.565Z,15.46
2023-02-14T19:06:31.565Z,15.35
2023-02-14T19:09:01.007Z,15.32
2023-02-14T19:11:30.927Z,15.29
2023-02-14T19:14:00.998Z,15.25
2023-02-14T19:16:31.126Z,15.23
2023-02-14T19:18:58.648Z,15.22
2023-02-14T19:24:20.884Z,15.23
2023-02-14T19:26:48.351Z,15.22
2023-02-14T19:29:18.332Z,15.25
2023-02-14T19:31:48.531Z,15.22
2023-02-14T19:34:19.317Z,15.22
2023-02-14T19:36:47.053Z,15.19
2023-02-14T19:39:15.341Z,15.18
2023-02-14T19:41:45.216Z,15.15
2023-02-14T19:44:14.557Z,15.13
2023-02-14T19:46:43.603Z,15.06
2023-02-14T19:49:14.056Z,15.03
2023-02-14T19:51:41.525Z,14.99
2023-02-14T19:54:08.867Z,14.92
2023-02-14T19:56:41.034Z,14.84
2023-02-14T19:59:11.016Z,14.77
2023-02-14T20:01:40.568Z,14.70
2023-02-14T20:04:11.261Z,14.72
2023-02-14T20:06:38.457Z,14.70
2023-02-14T20:09:08.643Z,14.70
2023-02-14T20:11:38.751Z,14.70
2023-02-14T20:14:08.831Z,14.67
2023-02-14T20:16:37.008Z,14.63
2023-02-14T20:19:07.858Z,14.63
2023-02-14T20:21:35.458Z,14.60
2023-02-14T20:24:04.471Z,14.54
2023-02-14T20:26:35.313Z,14.50
2023-02-14T20:29:04.848Z,14.47
2023-02-14T20:31:34.513Z,14.45
2023-02-14T20:34:02.498Z,14.41
2023-02-14T20:36:30.346Z,14.40
2023-02-14T20:38:58.824Z,14.40
2023-02-14T20:41:27.562Z,14.33
2023-02-14T20:43:54.647Z,14.24
2023-02-14T20:46:49.830Z,14.23
2023-02-14T20:49:16.986Z,14.26
2023-02-14T20:51:44.812Z,14.30
2023-02-14T20:54:12.230Z,14.36
2023-02-14T20:56:39.581Z,14.38
2023-02-14T20:59:06.893Z,14.44
2023-02-14T21:01:33.931Z,14.45
2023-02-14T21:04:02.466Z,14.47
2023-02-14T21:06:32.229Z,14.50
2023-02-14T21:09:00.165Z,14.51
2023-02-14T21:11:28.411Z,14.50
2023-02-14T21:13:58.096Z,14.51
2023-02-14T21:16:28.528Z,14.50
2023-02-14T21:18:57.964Z,14.50
2023-02-14T21:21:28.328Z,14.51
2023-02-14T21:24:00.804Z,14.51
2023-02-14T21:26:28.768Z,14.50
2023-02-14T21:28:56.042Z,14.52
2023-02-14T21:31:22.997Z,14.48
2023-02-14T21:33:50.657Z,14.47
2023-02-14T21:36:20.228Z,14.48
2023-02-14T21:38:52.508Z,14.48
2023-02-14T21:41:21.882Z,14.42
2023-02-14T21:43:51.641Z,14.36
2023-02-14T21:46:44.506Z,14.38
2023-02-14T21:49:12.754Z,14.41
2023-02-14T21:51:40.463Z,14.42
2023-02-14T21:54:11.760Z,14.42
2023-02-14T21:56:40.795Z,14.41
2023-02-14T21:59:08.137Z,14.41
2023-02-14T22:01:39.123Z,14.36
2023-02-14T22:04:08.436Z,14.36
2023-02-14T22:06:37.589Z,14.33
2023-02-14T22:09:05.516Z,14.33
2023-02-14T22:11:34.933Z,14.26
2023-02-14T22:14:02.048Z,14.26
2023-02-14T22:16:29.056Z,14.21
2023-02-14T22:18:56.193Z,14.19
2023-02-14T22:24:16.674Z,14.14
2023-02-14T22:26:45.357Z,14.13
2023-02-14T22:29:13.235Z,14.12
2023-02-14T22:31:42.716Z,14.09
2023-02-14T22:34:12.569Z,14.07
2023-02-14T22:36:39.703Z,14.03
2023-02-14T22:39:08.179Z,14.02
2023-02-14T22:41:35.669Z,13.95
2023-02-14T22:44:05.877Z,13.93
2023-02-14T22:46:33.738Z,13.90
2023-02-14T22:49:00.696Z,13.86
2023-02-14T22:51:30.885Z,13.85
2023-02-14T22:54:01.275Z,13.79
2023-02-14T22:56:31.837Z,13.78
2023-02-14T22:59:01.869Z,13.68
2023-02-14T23:01:31.104Z,13.63
2023-02-14T23:04:01.134Z,13.59
2023-02-14T23:06:31.329Z,13.55
2023-02-14T23:08:58.371Z,13.54
2023-02-14T23:11:27.722Z,13.55
2023-02-14T23:13:55.875Z,13.55
2023-02-14T23:16:23.220Z,13.55
2023-02-14T23:18:51.417Z,13.61
2023-02-14T23:21:18.713Z,13.63
2023-02-14T23:24:10.419Z,13.63
2023-02-14T23:26:37.441Z,13.65
2023-02-14T23:29:04.397Z,13.62
2023-02-14T23:31:31.656Z,13.59
2023-02-14T23:33:59.944Z,13.56
2023-02-14T23:36:26.846Z,13.52
2023-02-14T23:38:53.754Z,13.51
2023-02-14T23:41:20.793Z,13.49
2023-02-14T23:43:48.924Z,13.46
2023-02-14T23:46:16.512Z,13.41
2023-02-14T23:48:43.675Z,13.41
2023-02-14T23:51:12.037Z,13.39
2023-02-14T23:53:39.684Z,13.37
2023-02-14T23:56:06.734Z,13.28
2023-02-14T23:58:34.025Z,13.24
